createdAt,value
2023-05-17T00:00:55.748Z,100.00
2023-05-17T00:03:22.557Z,100.00
2023-05-17T00:05:49.314Z,100.00
2023-05-17T00:08:16.301Z,100.00
2023-05-17T00:10:43.381Z,100.00
2023-05-17T00:13:10.191Z,100.00
2023-05-17T00:15:36.949Z,100.00
2023-05-17T00:18:03.878Z,100.00
2023-05-17T00:20:30.722Z,100.00
2023-05-17T00:22:57.411Z,100.00
2023-05-17T00:25:24.148Z,100.00
2023-05-17T00:27:50.898Z,100.00
2023-05-17T00:30:17.680Z,100.00
2023-05-17T00:32:46.859Z,100.00
2023-05-17T00:35:14.110Z,100.00
2023-05-17T00:37:40.920Z,100.00
2023-05-17T00:40:08.357Z,100.00
2023-05-17T00:42:35.124Z,100.00
2023-05-17T00:45:01.852Z,100.00
2023-05-17T00:47:28.611Z,100.00
2023-05-17T00:49:55.649Z,100.00
2023-05-17T00:52:22.376Z,100.00
2023-05-17T00:54:50.740Z,100.00
2023-05-17T00:57:17.868Z,100.00
2023-05-17T00:59:45.123Z,100.00
2023-05-17T01:02:12.089Z,100.00
2023-05-17T01:04:39.198Z,100.00
2023-05-17T01:07:06.027Z,100.00
2023-05-17T01:09:33.008Z,100.00
2023-05-17T01:12:37.813Z,100.00
2023-05-17T01:15:13.228Z,100.00
2023-05-17T01:17:50.712Z,100.00
2023-05-17T01:20:28.454Z,100.00
2023-05-17T01:23:23.895Z,100.00
2023-05-17T01:26:00.741Z,100.00
2023-05-17T01:28:28.279Z,100.00
2023-05-17T01:30:57.563Z,100.00
2023-05-17T01:33:24.498Z,100.00
2023-05-17T01:35:51.285Z,100.00
2023-05-17T01:38:17.934Z,100.00
2023-05-17T01:41:07.964Z,100.00
2023-05-17T01:43:46.579Z,100.00
2023-05-17T01:46:29.893Z,100.00
2023-05-17T01:49:26.915Z,100.00
2023-05-17T01:51:53.516Z,100.00
2023-05-17T01:54:23.030Z,100.00
2023-05-17T01:56:59.322Z,100.00
2023-05-17T01:59:27.617Z,100.00
2023-05-17T02:01:57.213Z,100.00
2023-05-17T02:04:23.983Z,100.00
2023-05-17T02:06:50.969Z,100.00
2023-05-17T02:09:17.669Z,100.00
2023-05-17T02:11:44.437Z,100.00
2023-05-17T02:14:11.150Z,100.00
2023-05-17T02:16:37.851Z,100.00
2023-05-17T02:19:04.625Z,100.00
2023-05-17T02:21:31.348Z,100.00
2023-05-17T02:23:58.008Z,100.00
2023-05-17T02:26:24.629Z,100.00
2023-05-17T02:28:51.317Z,100.00
2023-05-17T02:31:18.010Z,100.00
2023-05-17T02:33:44.821Z,100.00
2023-05-17T02:36:11.494Z,100.00
2023-05-17T02:38:38.121Z,100.00
2023-05-17T02:41:04.931Z,100.00
2023-05-17T02:43:31.677Z,100.00
2023-05-17T02:45:58.536Z,100.00
2023-05-17T02:48:25.249Z,100.00
2023-05-17T02:50:52.016Z,100.00
2023-05-17T02:53:18.710Z,100.00
2023-05-17T02:55:45.445Z,100.00
2023-05-17T02:58:12.113Z,100.00
2023-05-17T03:00:38.911Z,100.00
2023-05-17T03:03:05.943Z,100.00
2023-05-17T03:05:33.679Z,100.00
2023-05-17T03:08:00.386Z,100.00
2023-05-17T03:10:27.100Z,100.00
2023-05-17T03:12:53.844Z,100.00
2023-05-17T03:15:20.613Z,100.00
2023-05-17T03:17:47.459Z,100.00
2023-05-17T03:20:14.557Z,100.00
2023-05-17T03:22:41.228Z,100.00
2023-05-17T03:25:08.435Z,100.00
2023-05-17T03:27:35.313Z,100.00
2023-05-17T03:30:02.267Z,100.00
2023-05-17T03:32:29.098Z,100.00
2023-05-17T03:34:55.778Z,100.00
2023-05-17T03:37:22.881Z,100.00
2023-05-17T03:39:49.607Z,100.00
2023-05-17T03:42:16.540Z,100.00
2023-05-17T03:44:43.215Z,100.00
2023-05-17T03:47:09.906Z,100.00
2023-05-17T03:49:36.579Z,100.00
2023-05-17T03:52:03.622Z,100.00
2023-05-17T03:54:30.344Z,100.00
2023-05-17T03:56:57.049Z,100.00
2023-05-17T03:59:24.049Z,100.00
2023-05-17T04:01:50.728Z,100.00
2023-05-17T04:04:17.467Z,100.00
2023-05-17T04:06:44.305Z,100.00
2023-05-17T04:09:13.119Z,100.00
2023-05-17T04:11:40.992Z,100.00
2023-05-17T04:14:07.932Z,100.00
2023-05-17T04:16:34.633Z,100.00
2023-05-17T04:19:01.948Z,100.00
2023-05-17T04:21:28.874Z,100.00
2023-05-17T04:23:55.625Z,100.00
2023-05-17T04:26:22.600Z,100.00
2023-05-17T04:28:49.258Z,100.00
2023-05-17T04:31:16.978Z,100.00
2023-05-17T04:33:43.769Z,100.00
2023-05-17T04:36:10.465Z,100.00
2023-05-17T04:38:37.092Z,100.00
2023-05-17T04:41:05.319Z,100.00
2023-05-17T04:43:33.045Z,100.00
2023-05-17T04:46:00.199Z,100.00
2023-05-17T04:48:27.718Z,100.00
2023-05-17T04:50:54.662Z,100.00
2023-05-17T04:53:21.650Z,100.00
2023-05-17T04:55:48.656Z,100.00
2023-05-17T04:58:15.321Z,100.00
2023-05-17T05:00:42.074Z,100.00
2023-05-17T05:03:08.833Z,100.00
2023-05-17T05:05:35.695Z,100.00
2023-05-17T05:08:02.562Z,100.00
2023-05-17T05:10:29.467Z,100.00
2023-05-17T05:12:56.248Z,100.00
2023-05-17T05:15:22.936Z,100.00
2023-05-17T05:17:49.751Z,100.00
2023-05-17T05:20:16.764Z,100.00
2023-05-17T05:22:43.504Z,100.00
2023-05-17T05:25:10.315Z,100.00
2023-05-17T05:27:37.118Z,100.00
2023-05-17T05:30:04.440Z,100.00
2023-05-17T05:32:31.277Z,100.00
2023-05-17T05:34:58.031Z,100.00
2023-05-17T05:37:24.756Z,100.00
2023-05-17T05:39:51.427Z,100.00
2023-05-17T05:42:18.436Z,100.00
2023-05-17T05:44:45.226Z,100.00
2023-05-17T05:47:12.065Z,100.00
2023-05-17T05:49:38.745Z,100.00
2023-05-17T05:52:05.580Z,100.00
2023-05-17T05:54:32.358Z,100.00
2023-05-17T05:57:00.760Z,100.00
2023-05-17T05:59:27.791Z,100.00
2023-05-17T06:01:54.438Z,73.59
2023-05-17T06:04:24.632Z,69.40
2023-05-17T06:06:56.658Z,78.42
2023-05-17T06:09:23.412Z,66.42
2023-05-17T06:11:52.780Z,54.37
2023-05-17T06:14:19.684Z,48.12
2023-05-17T06:16:48.560Z,46.41
2023-05-17T06:19:15.734Z,41.25
2023-05-17T06:21:42.456Z,39.75
2023-05-17T06:24:09.193Z,42.00
2023-05-17T06:26:35.929Z,40.04
2023-05-17T06:29:02.660Z,38.35
2023-05-17T06:31:29.425Z,38.99
2023-05-17T06:33:58.094Z,36.69
2023-05-17T06:36:25.401Z,40.33
2023-05-17T06:38:52.243Z,37.29
2023-05-17T06:41:19.001Z,40.22
2023-05-17T06:43:48.201Z,38.39
2023-05-17T06:46:14.879Z,38.20
2023-05-17T06:48:41.791Z,38.04
2023-05-17T06:51:10.966Z,39.58
2023-05-17T06:53:37.661Z,38.87
2023-05-17T06:56:04.591Z,40.06
2023-05-17T06:58:32.644Z,36.86
2023-05-17T07:00:59.303Z,42.92
2023-05-17T07:03:26.563Z,44.91
2023-05-17T07:05:53.318Z,46.69
2023-05-17T07:08:19.975Z,49.52
2023-05-17T07:10:46.655Z,50.32
2023-05-17T07:13:13.460Z,48.34
2023-05-17T07:15:40.207Z,50.98
2023-05-17T07:18:07.012Z,48.74
2023-05-17T07:20:33.794Z,49.36
2023-05-17T07:23:00.915Z,48.08
2023-05-17T07:25:27.913Z,48.50
2023-05-17T07:27:57.052Z,51.05
2023-05-17T07:30:23.893Z,51.59
2023-05-17T07:32:50.761Z,49.75
2023-05-17T07:35:19.675Z,49.96
2023-05-17T07:37:47.900Z,49.96
2023-05-17T07:40:14.635Z,51.83
2023-05-17T07:42:41.835Z,53.44
2023-05-17T07:45:09.213Z,52.23
2023-05-17T07:47:36.095Z,52.16
2023-05-17T07:50:04.284Z,55.11
2023-05-17T07:52:33.028Z,54.78
2023-05-17T07:54:59.802Z,54.27
2023-05-17T07:57:27.581Z,55.38
2023-05-17T07:59:54.429Z,54.32
2023-05-17T08:02:21.184Z,54.65
2023-05-17T08:04:47.900Z,55.69
2023-05-17T08:07:14.666Z,56.08
2023-05-17T08:09:44.213Z,55.31
2023-05-17T08:12:12.274Z,53.57
2023-05-17T08:14:39.748Z,53.03
2023-05-17T08:17:06.381Z,53.17
2023-05-17T08:19:33.350Z,51.37
2023-05-17T08:22:00.121Z,49.62
2023-05-17T08:24:26.778Z,51.30
2023-05-17T08:26:53.530Z,50.41
2023-05-17T08:29:20.209Z,51.35
2023-05-17T08:31:46.892Z,52.72
2023-05-17T08:34:13.724Z,51.22
2023-05-17T08:36:40.787Z,53.40
2023-05-17T08:39:08.627Z,52.75
2023-05-17T08:41:38.466Z,53.26
2023-05-17T08:44:06.447Z,53.08
2023-05-17T08:46:35.008Z,50.23
2023-05-17T08:49:05.102Z,44.96
2023-05-17T08:51:32.743Z,49.02
2023-05-17T08:53:59.934Z,45.87
2023-05-17T08:56:31.090Z,47.58
2023-05-17T08:58:58.950Z,49.43
2023-05-17T09:01:27.454Z,49.42
2023-05-17T09:03:55.403Z,45.91
2023-05-17T09:06:23.087Z,43.02
2023-05-17T09:08:56.356Z,43.28
2023-05-17T09:11:28.735Z,48.87
2023-05-17T09:14:06.371Z,44.95
2023-05-17T09:16:37.856Z,44.62
2023-05-17T09:19:07.142Z,46.97
2023-05-17T09:21:34.284Z,48.51
2023-05-17T09:26:42.334Z,53.33
2023-05-17T09:29:16.577Z,50.89
2023-05-17T09:31:44.258Z,49.97
2023-05-17T09:34:11.682Z,46.34
2023-05-17T09:36:42.544Z,42.82
2023-05-17T09:39:12.668Z,46.58
2023-05-17T09:41:43.466Z,44.18
2023-05-17T09:44:11.641Z,45.32
2023-05-17T09:46:42.362Z,47.30
2023-05-17T09:49:09.385Z,48.61
2023-05-17T09:51:55.179Z,44.17
2023-05-17T09:54:21.944Z,40.69
2023-05-17T09:57:07.628Z,39.57
2023-05-17T09:59:34.347Z,37.51
2023-05-17T10:02:02.515Z,36.00
2023-05-17T10:04:32.197Z,38.96
2023-05-17T10:07:01.151Z,41.37
2023-05-17T10:09:34.447Z,43.37
2023-05-17T10:12:03.194Z,45.04
2023-05-17T10:14:33.744Z,45.99
2023-05-17T10:17:03.202Z,45.65
2023-05-17T10:19:31.328Z,45.23
2023-05-17T10:22:05.209Z,43.91
2023-05-17T10:24:46.569Z,43.45
2023-05-17T10:27:13.495Z,44.32
2023-05-17T10:29:41.669Z,43.58
2023-05-17T10:32:09.249Z,46.57
2023-05-17T10:34:39.226Z,45.29
2023-05-17T10:37:06.714Z,44.46
2023-05-17T10:39:34.919Z,44.69
2023-05-17T10:42:14.349Z,45.53
2023-05-17T10:44:43.006Z,43.71
2023-05-17T10:47:11.624Z,45.41
2023-05-17T10:49:45.123Z,45.98
2023-05-17T10:52:17.107Z,45.27
2023-05-17T10:54:47.640Z,44.38
2023-05-17T11:00:09.143Z,43.08
2023-05-17T11:02:40.627Z,44.83
2023-05-17T11:05:07.905Z,43.08
2023-05-17T11:07:37.302Z,45.16
2023-05-17T11:10:11.159Z,46.99
2023-05-17T11:12:55.392Z,45.67
2023-05-17T11:15:26.510Z,43.43
2023-05-17T11:17:54.232Z,42.27
2023-05-17T11:20:24.266Z,44.95
2023-05-17T11:23:02.283Z,44.78
2023-05-17T11:25:35.830Z,46.94
2023-05-17T11:28:17.736Z,45.76
2023-05-17T11:30:51.142Z,41.83
2023-05-17T11:33:32.438Z,41.34
2023-05-17T11:36:05.271Z,43.59
2023-05-17T11:38:32.823Z,43.05
2023-05-17T11:41:26.513Z,42.17
2023-05-17T11:43:55.361Z,41.21
2023-05-17T11:46:24.197Z,41.98
2023-05-17T11:48:53.494Z,43.44
2023-05-17T11:51:22.826Z,42.36
2023-05-17T11:53:55.141Z,40.59
2023-05-17T11:56:29.212Z,40.19
2023-05-17T11:59:00.088Z,43.89
2023-05-17T12:01:26.885Z,44.99
2023-05-17T12:04:00.391Z,46.15
2023-05-17T12:06:28.819Z,48.11
2023-05-17T12:08:55.733Z,47.21
2023-05-17T12:11:22.661Z,47.71
2023-05-17T12:13:52.082Z,46.74
2023-05-17T12:16:22.111Z,45.18
2023-05-17T12:18:50.420Z,43.79
2023-05-17T12:21:18.454Z,41.24
2023-05-17T12:23:48.838Z,44.94
2023-05-17T12:26:22.404Z,46.08
2023-05-17T12:29:00.013Z,50.69
2023-05-17T12:31:34.049Z,49.27
2023-05-17T12:34:02.498Z,47.98
2023-05-17T12:36:30.307Z,47.36
2023-05-17T12:38:57.499Z,49.51
2023-05-17T12:41:28.699Z,51.14
2023-05-17T12:44:02.987Z,51.62
2023-05-17T12:46:40.410Z,52.56
2023-05-17T12:49:08.816Z,51.66
2023-05-17T12:51:45.923Z,53.63
2023-05-17T12:54:16.252Z,53.77
2023-05-17T12:56:46.780Z,55.79
2023-05-17T12:59:14.368Z,55.02
2023-05-17T13:01:44.230Z,55.90
2023-05-17T13:04:11.662Z,54.82
2023-05-17T13:06:51.646Z,53.93
2023-05-17T13:09:21.090Z,52.77
2023-05-17T13:11:51.143Z,51.51
2023-05-17T13:14:40.667Z,53.07
2023-05-17T13:17:11.122Z,51.94
2023-05-17T13:19:38.776Z,53.57
2023-05-17T13:22:06.807Z,54.00
2023-05-17T13:24:35.526Z,51.65
2023-05-17T13:27:02.695Z,52.94
2023-05-17T13:29:38.717Z,51.64
2023-05-17T13:32:08.535Z,52.61
2023-05-17T13:34:36.108Z,51.29
2023-05-17T13:37:03.085Z,50.92
2023-05-17T13:39:29.914Z,53.76
2023-05-17T13:41:56.998Z,54.03
2023-05-17T13:44:23.817Z,55.19
2023-05-17T13:46:50.521Z,55.62
2023-05-17T13:49:18.876Z,59.52
2023-05-17T13:51:46.193Z,58.18
2023-05-17T13:54:13.142Z,60.06
2023-05-17T13:56:40.047Z,61.66
2023-05-17T13:59:06.826Z,60.35
2023-05-17T14:01:33.710Z,59.92
2023-05-17T14:04:00.871Z,60.48
2023-05-17T14:06:28.275Z,58.40
2023-05-17T14:08:55.914Z,56.02
2023-05-17T14:11:22.905Z,53.68
2023-05-17T14:13:49.707Z,52.44
2023-05-17T14:16:16.633Z,53.93
2023-05-17T14:18:43.635Z,56.21
2023-05-17T14:21:10.557Z,58.32
2023-05-17T14:23:37.698Z,58.49
2023-05-17T14:26:07.298Z,60.23
2023-05-17T14:28:37.840Z,59.37
2023-05-17T14:31:06.522Z,59.08
2023-05-17T14:33:33.569Z,58.03
2023-05-17T14:36:00.432Z,56.28
2023-05-17T14:38:27.282Z,55.73
2023-05-17T14:40:54.023Z,56.12
2023-05-17T14:43:20.966Z,54.72
2023-05-17T14:45:47.816Z,53.90
2023-05-17T14:48:14.653Z,53.74
2023-05-17T14:50:41.578Z,56.45
2023-05-17T14:53:08.370Z,57.83
2023-05-17T14:55:35.557Z,58.44
2023-05-17T14:58:02.671Z,60.66
2023-05-17T15:00:29.577Z,61.32
2023-05-17T15:02:56.788Z,63.65
2023-05-17T15:05:24.123Z,64.14
2023-05-17T15:07:50.988Z,61.54
2023-05-17T15:10:17.797Z,62.28
2023-05-17T15:12:44.561Z,63.02
2023-05-17T15:15:11.439Z,62.97
2023-05-17T15:17:38.211Z,63.03
2023-05-17T15:20:05.730Z,62.64
2023-05-17T15:22:33.178Z,63.74
2023-05-17T15:25:00.039Z,64.84
2023-05-17T15:27:27.387Z,64.52
2023-05-17T15:29:54.130Z,64.36
2023-05-17T15:32:21.181Z,65.00
2023-05-17T15:34:48.167Z,67.35
2023-05-17T15:37:14.994Z,68.01
2023-05-17T15:39:41.656Z,68.57
2023-05-17T15:42:08.476Z,70.18
2023-05-17T15:44:35.166Z,71.41
2023-05-17T15:47:03.214Z,74.58
2023-05-17T15:49:34.353Z,73.59
2023-05-17T15:52:01.084Z,75.89
2023-05-17T15:54:27.729Z,75.65
2023-05-17T15:56:54.494Z,73.15
2023-05-17T15:59:21.216Z,71.90
2023-05-17T16:01:47.994Z,72.26
2023-05-17T16:04:14.900Z,71.04
2023-05-17T16:06:41.847Z,71.87
2023-05-17T16:09:08.650Z,71.67
2023-05-17T16:11:35.468Z,69.74
2023-05-17T16:14:02.209Z,70.32
2023-05-17T16:16:28.952Z,68.62
2023-05-17T16:18:55.947Z,70.35
2023-05-17T16:21:22.741Z,68.81
2023-05-17T16:23:49.511Z,68.12
2023-05-17T16:26:16.224Z,67.99
2023-05-17T16:28:43.042Z,72.31
2023-05-17T16:31:10.123Z,75.43
2023-05-17T16:33:36.994Z,74.66
2023-05-17T16:36:05.009Z,76.59
2023-05-17T16:38:31.805Z,75.21
2023-05-17T16:41:03.154Z,77.11
2023-05-17T16:43:30.897Z,76.04
2023-05-17T16:45:57.656Z,75.54
2023-05-17T16:48:24.563Z,75.43
2023-05-17T16:50:51.646Z,76.34
2023-05-17T16:53:18.852Z,77.55
2023-05-17T16:55:45.697Z,77.03
2023-05-17T16:58:13.128Z,78.14
2023-05-17T17:00:39.956Z,78.01
2023-05-17T17:03:09.183Z,77.04
2023-05-17T17:05:36.687Z,77.25
2023-05-17T17:08:03.643Z,78.30
2023-05-17T17:10:30.848Z,78.59
2023-05-17T17:12:58.358Z,79.05
2023-05-17T17:15:25.278Z,78.94
2023-05-17T17:17:52.407Z,79.01
2023-05-17T17:20:19.742Z,82.03
2023-05-17T17:22:46.640Z,82.38
2023-05-17T17:25:13.383Z,81.50
2023-05-17T17:27:40.234Z,81.36
2023-05-17T17:30:07.643Z,81.65
2023-05-17T17:32:34.523Z,81.54
2023-05-17T17:35:01.534Z,82.99
2023-05-17T17:37:28.324Z,83.38
2023-05-17T17:39:55.015Z,82.94
2023-05-17T17:42:21.824Z,81.97
2023-05-17T17:44:48.695Z,82.16
2023-05-17T17:47:15.509Z,84.55
2023-05-17T17:49:42.419Z,87.50
2023-05-17T17:52:09.274Z,88.06
2023-05-17T17:54:35.985Z,87.68
2023-05-17T17:57:03.185Z,87.82
2023-05-17T17:59:30.124Z,88.12
2023-05-17T18:01:57.051Z,87.66
2023-05-17T18:04:23.907Z,87.80
2023-05-17T18:06:50.654Z,88.06
2023-05-17T18:09:17.443Z,88.96
2023-05-17T18:11:44.263Z,89.94
2023-05-17T18:14:11.043Z,91.37
2023-05-17T18:16:37.965Z,90.97
2023-05-17T18:19:04.778Z,91.10
2023-05-17T18:21:31.624Z,91.51
2023-05-17T18:23:58.578Z,92.30
2023-05-17T18:26:25.295Z,91.34
2023-05-17T18:28:52.105Z,91.23
2023-05-17T18:31:19.027Z,92.96
2023-05-17T18:33:45.905Z,92.71
2023-05-17T18:36:12.757Z,93.98
2023-05-17T18:38:39.563Z,93.99
2023-05-17T18:41:06.805Z,95.64
2023-05-17T18:43:33.666Z,96.70
2023-05-17T18:46:00.566Z,96.77
2023-05-17T18:48:27.895Z,97.19
2023-05-17T18:50:55.092Z,97.76
2023-05-17T18:53:21.835Z,99.33
2023-05-17T18:55:48.494Z,100.00
2023-05-17T18:58:15.229Z,100.00
2023-05-17T19:00:42.029Z,100.00
2023-05-17T19:03:08.819Z,100.00
2023-05-17T19:05:35.844Z,100.00
2023-05-17T19:08:02.610Z,100.00
2023-05-17T19:10:29.482Z,100.00
2023-05-17T19:12:56.502Z,100.00
2023-05-17T19:15:23.193Z,100.00
2023-05-17T19:17:50.129Z,100.00
2023-05-17T19:20:17.050Z,100.00
2023-05-17T19:22:43.765Z,100.00
2023-05-17T19:25:10.607Z,100.00
2023-05-17T19:27:37.384Z,100.00
2023-05-17T19:30:04.846Z,100.00
2023-05-17T19:32:33.156Z,100.00
2023-05-17T19:35:01.169Z,100.00
2023-05-17T19:37:28.621Z,100.00
2023-05-17T19:39:55.439Z,100.00
2023-05-17T19:42:22.330Z,100.00
2023-05-17T19:44:49.020Z,100.00
2023-05-17T19:47:15.808Z,100.00
2023-05-17T19:49:43.343Z,100.00
2023-05-17T19:52:10.315Z,100.00
2023-05-17T19:54:37.214Z,100.00
2023-05-17T19:57:04.127Z,100.00
2023-05-17T19:59:30.837Z,100.00
2023-05-17T20:01:57.902Z,100.00
2023-05-17T20:04:24.719Z,100.00
2023-05-17T20:06:51.916Z,100.00
2023-05-17T20:09:18.718Z,100.00
2023-05-17T20:11:45.579Z,100.00
2023-05-17T20:14:12.488Z,100.00
2023-05-17T20:16:39.404Z,100.00
2023-05-17T20:19:06.504Z,100.00
2023-05-17T20:21:33.620Z,100.00
2023-05-17T20:24:06.616Z,100.00
2023-05-17T20:26:37.285Z,100.00
2023-05-17T20:29:07.187Z,100.00
2023-05-17T20:31:35.367Z,100.00
2023-05-17T20:34:03.434Z,100.00
2023-05-17T20:36:31.339Z,100.00
2023-05-17T20:38:58.072Z,100.00
2023-05-17T20:41:24.802Z,100.00
2023-05-17T20:43:51.960Z,100.00
2023-05-17T20:46:18.780Z,100.00
2023-05-17T20:48:48.011Z,100.00
2023-05-17T20:51:15.732Z,100.00
2023-05-17T20:53:42.616Z,100.00
2023-05-17T20:56:09.544Z,100.00
2023-05-17T20:58:36.643Z,100.00
2023-05-17T21:01:03.511Z,100.00
2023-05-17T21:03:34.003Z,100.00
2023-05-17T21:06:01.847Z,100.00
2023-05-17T21:08:28.816Z,100.00
2023-05-17T21:10:56.154Z,100.00
2023-05-17T21:13:25.718Z,100.00
2023-05-17T21:15:54.619Z,100.00
2023-05-17T21:18:22.140Z,100.00
2023-05-17T21:20:50.447Z,100.00
2023-05-17T21:23:18.083Z,100.00
2023-05-17T21:25:44.788Z,100.00
2023-05-17T21:28:11.642Z,100.00
2023-05-17T21:30:38.399Z,100.00
2023-05-17T21:33:05.717Z,100.00
2023-05-17T21:35:32.849Z,100.00
2023-05-17T21:37:59.663Z,100.00
2023-05-17T21:40:26.482Z,100.00
2023-05-17T21:42:53.295Z,100.00
2023-05-17T21:45:20.177Z,100.00
2023-05-17T21:47:47.190Z,100.00
2023-05-17T21:50:14.021Z,100.00
2023-05-17T21:52:40.852Z,100.00
2023-05-17T21:55:08.346Z,100.00
2023-05-17T21:57:36.541Z,100.00
2023-05-17T22:00:07.998Z,100.00
2023-05-17T22:02:35.858Z,100.00
2023-05-17T22:05:02.861Z,100.00
2023-05-17T22:07:29.831Z,100.00
2023-05-17T22:09:58.370Z,100.00
2023-05-17T22:12:26.295Z,100.00
2023-05-17T22:14:57.001Z,100.00
2023-05-17T22:17:42.509Z,100.00
2023-05-17T22:20:16.863Z,100.00
2023-05-17T22:22:44.053Z,100.00
2023-05-17T22:25:10.941Z,100.00
2023-05-17T22:27:37.638Z,100.00
2023-05-17T22:30:04.788Z,100.00
2023-05-17T22:32:31.989Z,100.00
2023-05-17T22:34:58.682Z,100.00
2023-05-17T22:37:25.353Z,100.00
2023-05-17T22:39:52.049Z,100.00
2023-05-17T22:42:18.801Z,100.00
2023-05-17T22:44:45.645Z,100.00
2023-05-17T22:47:14.829Z,100.00
2023-05-17T22:49:42.256Z,100.00
2023-05-17T22:52:10.976Z,100.00
2023-05-17T22:54:38.332Z,100.00
2023-05-17T22:57:05.938Z,100.00
2023-05-17T22:59:33.220Z,100.00
2023-05-17T23:02:00.962Z,100.00
2023-05-17T23:04:30.180Z,100.00
2023-05-17T23:07:03.771Z,100.00
2023-05-17T23:09:30.567Z,100.00
2023-05-17T23:12:00.346Z,100.00
2023-05-17T23:14:27.336Z,100.00
2023-05-17T23:16:54.076Z,100.00
2023-05-17T23:19:21.142Z,100.00
2023-05-17T23:21:49.056Z,100.00
2023-05-17T23:24:15.866Z,100.00
2023-05-17T23:26:42.514Z,100.00
2023-05-17T23:29:10.682Z,100.00
2023-05-17T23:31:37.936Z,100.00
2023-05-17T23:34:06.838Z,100.00
2023-05-17T23:36:33.716Z,100.00
2023-05-17T23:39:00.521Z,100.00
2023-05-17T23:41:29.314Z,100.00
2023-05-17T23:43:57.033Z,100.00
2023-05-17T23:46:23.976Z,100.00
2023-05-17T23:48:50.873Z,100.00
2023-05-17T23:51:20.648Z,100.00
2023-05-17T23:53:50.447Z,100.00
2023-05-17T23:56:18.259Z,100.00
2023-05-17T23:58:45.581Z,100.00
